createdAt,value
2018-06-03T00:02:04.715Z,2.60
2018-06-03T00:04:32.330Z,2.00
2018-06-03T00:06:59.942Z,2.90
2018-06-03T00:09:28.374Z,2.40
2018-06-03T00:11:55.962Z,4.10
2018-06-03T00:14:24.374Z,4.40
2018-06-03T00:16:52.750Z,3.23
2018-06-03T00:19:21.114Z,3.80
2018-06-03T00:21:51.317Z,2.73
2018-06-03T00:24:18.915Z,3.63
2018-06-03T00:26:46.510Z,2.53
2018-06-03T00:29:14.158Z,3.13
2018-06-03T00:31:41.754Z,2.37
2018-06-03T00:34:09.353Z,2.70
2018-06-03T00:36:43.613Z,3.13
2018-06-03T00:39:11.318Z,2.97
2018-06-03T00:41:39.678Z,2.23
2018-06-03T00:44:07.282Z,2.17
2018-06-03T00:46:37.762Z,4.13
2018-06-03T00:49:05.363Z,2.70
2018-06-03T00:51:33.041Z,3.00
2018-06-03T00:54:00.635Z,2.73
2018-06-03T00:56:40.079Z,4.47
2018-06-03T00:59:07.686Z,3.20
2018-06-03T01:01:35.282Z,3.77
2018-06-03T01:04:02.905Z,2.87
2018-06-03T01:06:30.539Z,5.10
2018-06-03T01:08:58.921Z,3.50
2018-06-03T01:11:27.325Z,3.40
2018-06-03T01:13:55.694Z,2.80
2018-06-03T01:16:23.294Z,5.53
2018-06-03T01:18:50.943Z,3.30
2018-06-03T01:21:18.578Z,3.43
2018-06-03T01:23:46.173Z,4.10
2018-06-03T01:26:13.788Z,4.47
2018-06-03T01:28:42.146Z,4.43
2018-06-03T01:31:09.742Z,4.13
2018-06-03T01:33:37.369Z,4.23
2018-06-03T01:36:04.981Z,3.40
2018-06-03T01:38:32.633Z,3.53
2018-06-03T01:41:00.269Z,3.30
2018-06-03T01:43:27.857Z,4.20
2018-06-03T01:45:55.462Z,3.47
2018-06-03T01:48:23.093Z,3.73
2018-06-03T01:50:50.694Z,3.50
2018-06-03T01:53:18.291Z,3.17
2018-06-03T01:55:45.929Z,2.20
2018-06-03T01:58:14.291Z,3.78
2018-06-03T02:00:41.879Z,3.50
2018-06-03T02:03:09.482Z,3.37
2018-06-03T02:05:37.078Z,3.40
2018-06-03T02:08:05.439Z,3.13
2018-06-03T02:10:33.138Z,3.93
2018-06-03T02:13:00.762Z,3.67
2018-06-03T02:15:28.363Z,3.53
2018-06-03T02:17:55.972Z,3.40
2018-06-03T02:20:23.569Z,4.30
2018-06-03T02:22:51.168Z,5.20
2018-06-03T02:25:19.544Z,3.30
2018-06-03T02:27:47.134Z,3.73
2018-06-03T02:30:15.543Z,4.67
2018-06-03T02:32:43.165Z,3.87
2018-06-03T02:35:10.766Z,2.90
2018-06-03T02:37:38.382Z,4.50
2018-06-03T02:40:06.014Z,3.87
2018-06-03T02:42:33.610Z,4.37
2018-06-03T02:45:01.209Z,4.40
2018-06-03T02:47:28.816Z,5.37
2018-06-03T02:49:56.413Z,4.03
2018-06-03T02:52:24.816Z,5.07
2018-06-03T02:54:52.424Z,4.23
2018-06-03T02:57:20.026Z,4.30
2018-06-03T02:59:48.382Z,4.37
2018-06-03T03:02:15.999Z,4.33
2018-06-03T03:04:43.594Z,4.33
2018-06-03T03:07:11.196Z,4.00
2018-06-03T03:09:38.847Z,3.07
2018-06-03T03:12:07.294Z,3.70
2018-06-03T03:14:34.895Z,4.37
2018-06-03T03:17:02.534Z,3.83
2018-06-03T03:19:30.898Z,4.33
2018-06-03T03:21:58.489Z,4.43
2018-06-03T03:24:26.911Z,3.90
2018-06-03T03:26:55.270Z,4.27
2018-06-03T03:29:22.866Z,4.13
2018-06-03T03:31:50.474Z,4.77
2018-06-03T03:34:18.066Z,4.00
2018-06-03T03:36:45.669Z,4.20
2018-06-03T03:39:14.068Z,4.00
2018-06-03T03:41:41.693Z,3.97
2018-06-03T03:44:09.297Z,4.30
2018-06-03T03:46:36.922Z,4.37
2018-06-03T03:49:04.514Z,4.13
2018-06-03T03:51:32.108Z,5.10
2018-06-03T03:53:59.729Z,4.97
2018-06-03T03:56:27.319Z,5.20
2018-06-03T03:58:54.922Z,6.17
2018-06-03T04:01:23.322Z,6.07
2018-06-03T04:03:51.679Z,5.30
2018-06-03T04:06:19.274Z,6.07
2018-06-03T04:08:46.893Z,6.20
2018-06-03T04:11:14.507Z,5.80
2018-06-03T04:13:42.866Z,5.97
2018-06-03T04:16:10.505Z,5.87
2018-06-03T04:18:38.862Z,5.47
2018-06-03T04:21:06.454Z,5.93
2018-06-03T04:23:34.058Z,5.67
2018-06-03T04:26:01.650Z,5.67
2018-06-03T04:28:29.257Z,5.50
2018-06-03T04:30:56.862Z,6.10
2018-06-03T04:33:24.454Z,6.03
2018-06-03T04:35:52.834Z,7.10
2018-06-03T04:38:20.453Z,6.13
2018-06-03T04:40:48.046Z,6.33
2018-06-03T04:43:16.401Z,6.57
2018-06-03T04:45:44.012Z,6.30
2018-06-03T04:48:11.608Z,7.67
2018-06-03T04:50:39.207Z,8.40
2018-06-03T04:53:07.633Z,6.90
2018-06-03T04:55:35.233Z,7.70
2018-06-03T04:58:03.616Z,8.23
2018-06-03T05:00:31.223Z,8.57
2018-06-03T05:02:58.814Z,8.20
2018-06-03T05:05:26.406Z,7.70
2018-06-03T05:07:54.774Z,7.73
2018-06-03T05:10:23.134Z,7.60
2018-06-03T05:12:50.750Z,7.33
2018-06-03T05:15:18.350Z,7.13
2018-06-03T05:17:45.946Z,6.97
2018-06-03T05:20:14.362Z,7.57
2018-06-03T05:22:41.964Z,7.57
2018-06-03T05:25:09.567Z,6.30
2018-06-03T05:27:37.165Z,7.10
2018-06-03T05:30:04.797Z,6.50
2018-06-03T05:32:32.386Z,6.77
2018-06-03T05:34:59.973Z,6.60
2018-06-03T05:37:28.342Z,6.37
2018-06-03T05:39:55.934Z,5.60
2018-06-03T05:42:23.550Z,5.40
2018-06-03T05:44:51.153Z,5.80
2018-06-03T05:47:18.751Z,5.40
2018-06-03T05:49:46.345Z,5.13
2018-06-03T05:52:13.969Z,4.20
2018-06-03T05:54:41.557Z,4.30
2018-06-03T05:57:09.158Z,4.20
2018-06-03T05:59:36.765Z,4.30
2018-06-03T06:02:04.362Z,5.17
2018-06-03T06:04:32.718Z,4.30
2018-06-03T06:07:00.337Z,3.53
2018-06-03T06:09:27.934Z,3.90
2018-06-03T06:11:55.569Z,2.90
2018-06-03T06:14:23.194Z,4.00
2018-06-03T06:16:50.793Z,3.57
2018-06-03T06:19:18.385Z,2.67
2018-06-03T06:21:46.761Z,2.90
2018-06-03T06:24:14.385Z,2.93
2018-06-03T06:26:41.974Z,5.10
2018-06-03T06:29:09.599Z,3.20
2018-06-03T06:31:37.199Z,2.80
2018-06-03T06:34:05.562Z,2.10
2018-06-03T06:36:33.166Z,2.93
2018-06-03T06:39:00.759Z,3.93
2018-06-03T06:41:28.349Z,5.97
2018-06-03T06:43:55.955Z,3.57
2018-06-03T06:46:23.560Z,4.30
2018-06-03T06:48:51.154Z,4.30
2018-06-03T06:51:18.794Z,5.47
2018-06-03T06:54:15.123Z,4.57
2018-06-03T06:56:43.788Z,6.17
2018-06-03T06:59:12.425Z,2.40
2018-06-03T07:01:40.710Z,3.60
2018-06-03T07:04:09.386Z,6.27
2018-06-03T07:06:38.081Z,5.77
2018-06-03T07:09:07.382Z,6.33
2018-06-03T07:11:36.066Z,4.67
2018-06-03T07:14:04.771Z,3.03
2018-06-03T07:16:33.502Z,2.47
2018-06-03T07:19:02.214Z,5.47
2018-06-03T07:21:30.910Z,2.53
2018-06-03T07:23:59.217Z,6.37
2018-06-03T07:26:27.899Z,3.17
2018-06-03T07:28:56.574Z,3.50
2018-06-03T07:31:25.227Z,4.70
2018-06-03T07:33:53.899Z,3.17
2018-06-03T07:36:22.566Z,3.43
2018-06-03T07:38:51.265Z,2.33
2018-06-03T07:41:19.919Z,5.37
2018-06-03T07:43:48.614Z,6.00
2018-06-03T07:46:17.302Z,4.63
2018-06-03T07:48:45.966Z,5.10
2018-06-03T07:51:14.595Z,4.07
2018-06-03T07:53:43.251Z,3.13
2018-06-03T07:56:11.944Z,5.80
2018-06-03T07:58:40.595Z,5.77
2018-06-03T08:01:09.275Z,5.40
2018-06-03T08:03:37.957Z,4.10
2018-06-03T08:06:06.666Z,4.73
2018-06-03T08:08:35.316Z,2.43
2018-06-03T08:11:03.993Z,3.43
2018-06-03T08:13:32.257Z,7.27
2018-06-03T08:16:00.893Z,6.03
2018-06-03T08:18:29.522Z,3.90
2018-06-03T08:20:58.171Z,3.13
2018-06-03T08:23:26.826Z,3.37
2018-06-03T08:25:55.523Z,3.57
2018-06-03T08:28:24.154Z,3.80
2018-06-03T08:30:52.838Z,10.47
2018-06-03T08:33:21.494Z,4.20
2018-06-03T08:35:50.189Z,4.27
2018-06-03T08:38:18.842Z,3.43
2018-06-03T08:40:47.546Z,12.83
2018-06-03T08:43:16.246Z,2.37
2018-06-03T08:45:44.874Z,4.13
2018-06-03T08:48:13.562Z,3.97
2018-06-03T08:50:42.194Z,5.17
2018-06-03T08:53:10.890Z,5.90
2018-06-03T08:55:39.549Z,4.43
2018-06-03T08:58:08.178Z,3.52
2018-06-03T09:00:36.822Z,5.07
2018-06-03T09:03:05.520Z,4.83
2018-06-03T09:05:34.121Z,2.97
2018-06-03T09:08:02.766Z,6.03
2018-06-03T09:10:31.487Z,3.27
2018-06-03T09:13:00.203Z,4.43
2018-06-03T09:15:28.879Z,5.43
2018-06-03T09:17:57.590Z,4.07
2018-06-03T09:20:26.253Z,3.53
2018-06-03T09:22:55.004Z,5.00
2018-06-03T09:25:23.664Z,4.90
2018-06-03T09:27:52.302Z,7.30
2018-06-03T09:30:20.994Z,8.43
2018-06-03T09:32:49.689Z,8.17
2018-06-03T09:35:18.373Z,4.57
2018-06-03T09:37:47.022Z,3.87
2018-06-03T09:40:15.698Z,4.83
2018-06-03T09:42:44.331Z,6.30
2018-06-03T09:45:12.954Z,3.30
2018-06-03T09:47:41.603Z,3.83
2018-06-03T09:50:10.260Z,4.67
2018-06-03T09:52:38.890Z,3.37
2018-06-03T09:55:07.542Z,5.27
2018-06-03T09:57:36.182Z,4.43
2018-06-03T10:00:04.900Z,4.57
2018-06-03T10:02:33.566Z,4.83
2018-06-03T10:05:02.222Z,4.37
2018-06-03T10:07:30.883Z,5.13
2018-06-03T10:09:59.734Z,6.40
2018-06-03T10:12:28.419Z,5.67
2018-06-03T10:14:57.134Z,4.40
2018-06-03T10:17:25.802Z,4.27
2018-06-03T10:19:54.758Z,3.47
2018-06-03T10:22:23.159Z,4.47
2018-06-03T10:24:51.849Z,4.30
2018-06-03T10:27:20.551Z,4.67
2018-06-03T10:29:49.244Z,5.07
2018-06-03T10:32:17.922Z,2.93
2018-06-03T10:34:46.589Z,5.83
2018-06-03T10:37:15.271Z,6.10
2018-06-03T10:39:43.919Z,2.90
2018-06-03T10:42:12.550Z,4.70
2018-06-03T10:44:41.214Z,3.57
2018-06-03T10:47:09.862Z,3.87
2018-06-03T10:49:38.471Z,7.30
2018-06-03T10:52:07.147Z,5.93
2018-06-03T10:54:35.833Z,6.13
2018-06-03T10:57:04.544Z,6.00
2018-06-03T10:59:33.228Z,5.40
2018-06-03T11:02:01.970Z,5.30
2018-06-03T11:04:30.650Z,3.20
2018-06-03T11:06:59.329Z,4.33
2018-06-03T11:09:27.975Z,3.50
2018-06-03T11:11:56.671Z,3.40
2018-06-03T11:14:25.325Z,8.07
2018-06-03T11:16:54.011Z,3.63
2018-06-03T11:19:22.656Z,16.70
2018-06-03T11:21:51.347Z,6.80
2018-06-03T11:24:20.035Z,9.30
2018-06-03T11:26:48.663Z,5.30
2018-06-03T11:29:17.378Z,3.60
2018-06-03T11:31:46.022Z,3.10
2018-06-03T11:34:14.703Z,3.60
2018-06-03T11:36:43.353Z,6.27
2018-06-03T11:39:12.273Z,5.53
2018-06-03T11:41:40.933Z,4.00
2018-06-03T11:44:09.674Z,4.47
2018-06-03T11:46:38.351Z,6.27
2018-06-03T11:49:06.979Z,4.03
2018-06-03T11:51:35.659Z,4.13
2018-06-03T11:54:04.537Z,3.13
2018-06-03T11:56:44.338Z,6.00
2018-06-03T11:59:22.994Z,3.50
2018-06-03T12:01:51.327Z,5.27
2018-06-03T12:04:19.949Z,4.77
2018-06-03T12:06:48.657Z,4.03
2018-06-03T12:09:17.283Z,3.17
2018-06-03T12:11:45.934Z,5.23
2018-06-03T12:14:14.627Z,6.20
2018-06-03T12:16:43.305Z,3.90
2018-06-03T12:19:11.978Z,2.73
2018-06-03T12:21:40.670Z,2.17
2018-06-03T12:24:09.333Z,3.40
2018-06-03T12:26:37.990Z,4.33
2018-06-03T12:29:06.735Z,4.37
2018-06-03T12:31:35.363Z,3.80
2018-06-03T12:34:04.014Z,2.53
2018-06-03T12:36:32.662Z,2.67
2018-06-03T12:39:01.343Z,7.20
2018-06-03T12:41:30.034Z,5.40
2018-06-03T12:43:58.710Z,5.03
2018-06-03T12:46:27.381Z,2.30
2018-06-03T12:48:55.994Z,4.53
2018-06-03T12:51:24.681Z,3.77
2018-06-03T12:53:53.331Z,2.97
2018-06-03T12:56:22.011Z,4.83
2018-06-03T12:58:50.664Z,6.23
2018-06-03T13:01:19.382Z,4.20
2018-06-03T13:03:48.043Z,3.17
2018-06-03T13:06:16.673Z,4.27
2018-06-03T13:08:45.322Z,4.87
2018-06-03T13:11:13.982Z,3.07
2018-06-03T13:13:42.678Z,4.37
2018-06-03T13:16:11.310Z,2.70
2018-06-03T13:18:39.963Z,4.10
2018-06-03T13:21:08.714Z,2.77
2018-06-03T13:23:37.354Z,4.15
2018-06-03T13:26:06.054Z,4.17
2018-06-03T13:28:34.703Z,3.92
2018-06-03T13:31:03.362Z,2.50
2018-06-03T13:33:31.967Z,3.67
2018-06-03T13:36:00.609Z,4.40
2018-06-03T13:38:29.270Z,4.40
2018-06-03T13:40:57.903Z,3.85
2018-06-03T13:43:26.600Z,3.22
2018-06-03T13:45:55.250Z,2.77
2018-06-03T13:48:23.894Z,5.15
2018-06-03T13:50:52.574Z,3.55
2018-06-03T13:53:21.206Z,2.40
2018-06-03T13:55:49.881Z,4.40
2018-06-03T13:58:18.623Z,4.12
2018-06-03T14:00:47.267Z,5.05
2018-06-03T14:03:15.861Z,3.45
2018-06-03T14:05:44.528Z,4.22
2018-06-03T14:08:13.166Z,2.70
2018-06-03T14:10:41.788Z,4.78
2018-06-03T14:13:10.228Z,2.87
2018-06-03T14:15:38.903Z,4.58
2018-06-03T14:18:07.562Z,3.33
2018-06-03T14:20:36.262Z,6.72
2018-06-03T14:23:04.943Z,3.27
2018-06-03T14:25:33.621Z,2.90
2018-06-03T14:28:02.309Z,3.62
2018-06-03T14:30:30.974Z,3.83
2018-06-03T14:32:59.609Z,5.55
2018-06-03T14:35:28.309Z,4.25
2018-06-03T14:37:56.946Z,3.83
2018-06-03T14:40:25.602Z,2.55
2018-06-03T14:42:54.241Z,2.60
2018-06-03T14:45:22.914Z,4.05
2018-06-03T14:47:51.229Z,4.10
2018-06-03T14:50:19.878Z,3.33
2018-06-03T14:52:48.575Z,2.10
2018-06-03T14:55:17.239Z,3.50
2018-06-03T14:57:45.895Z,4.78
2018-06-03T15:00:14.555Z,4.12
2018-06-03T15:02:43.250Z,4.08
2018-06-03T15:05:11.926Z,5.55
2018-06-03T15:07:40.589Z,2.20
2018-06-03T15:10:08.941Z,3.55
2018-06-03T15:12:37.646Z,3.47
2018-06-03T15:15:06.298Z,2.20
2018-06-03T15:17:34.979Z,4.35
2018-06-03T15:20:03.774Z,3.20
2018-06-03T15:22:32.438Z,2.85
2018-06-03T15:25:01.153Z,4.50
2018-06-03T15:27:29.822Z,2.50
2018-06-03T15:29:58.570Z,4.12
2018-06-03T15:32:27.237Z,4.53
2018-06-03T15:34:55.906Z,2.33
2018-06-03T15:37:24.549Z,3.52
2018-06-03T15:39:53.286Z,3.55
2018-06-03T15:42:21.987Z,3.87
2018-06-03T15:44:50.630Z,4.05
2018-06-03T15:47:19.286Z,3.83
2018-06-03T15:49:47.999Z,4.85
2018-06-03T15:52:16.753Z,3.30
2018-06-03T15:54:45.440Z,3.73
2018-06-03T15:57:14.136Z,4.07
2018-06-03T15:59:42.767Z,4.57
2018-06-03T16:02:11.547Z,4.50
2018-06-03T16:04:40.198Z,5.47
2018-06-03T16:07:08.883Z,3.10
2018-06-03T16:09:37.548Z,4.07
2018-06-03T16:12:06.225Z,5.53
2018-06-03T16:14:34.846Z,3.60
2018-06-03T16:17:03.518Z,5.03
2018-06-03T16:19:32.180Z,4.60
2018-06-03T16:22:00.863Z,9.83
2018-06-03T16:24:29.542Z,3.27
2018-06-03T16:26:58.258Z,5.03
2018-06-03T16:29:26.963Z,3.83
2018-06-03T16:31:55.614Z,3.30
2018-06-03T16:34:24.338Z,4.13
2018-06-03T16:36:52.614Z,3.33
2018-06-03T16:39:21.246Z,2.73
2018-06-03T16:41:49.915Z,2.53
2018-06-03T16:44:18.644Z,6.00
2018-06-03T16:46:47.323Z,2.97
2018-06-03T16:49:15.981Z,6.17
2018-06-03T16:51:44.636Z,2.97
2018-06-03T16:54:13.257Z,3.47
2018-06-03T16:56:41.894Z,4.40
2018-06-03T16:59:10.193Z,2.77
2018-06-03T17:01:38.862Z,4.30
2018-06-03T17:04:07.594Z,4.77
2018-06-03T17:06:36.334Z,3.47
2018-06-03T17:09:06.666Z,3.83
2018-06-03T17:11:35.320Z,5.17
2018-06-03T17:14:03.957Z,3.57
2018-06-03T17:16:32.582Z,4.17
2018-06-03T17:19:01.310Z,5.60
2018-06-03T17:21:29.974Z,2.60
2018-06-03T17:23:58.625Z,3.03
2018-06-03T17:26:27.287Z,6.03
2018-06-03T17:28:55.935Z,5.40
2018-06-03T17:31:24.616Z,5.30
2018-06-03T17:33:53.257Z,5.87
2018-06-03T17:36:22.017Z,4.77
2018-06-03T17:38:50.706Z,4.90
2018-06-03T17:41:19.360Z,7.33
2018-06-03T17:43:48.022Z,4.87
2018-06-03T17:46:16.658Z,4.13
2018-06-03T17:48:45.350Z,2.80
2018-06-03T17:51:14.090Z,2.73
2018-06-03T17:53:42.782Z,4.73
2018-06-03T17:56:11.502Z,2.67
2018-06-03T17:58:40.184Z,4.47
2018-06-03T18:01:08.837Z,3.87
2018-06-03T18:03:37.477Z,7.20
2018-06-03T18:06:06.179Z,3.67
2018-06-03T18:08:34.922Z,2.80
2018-06-03T18:11:03.619Z,4.30
2018-06-03T18:13:32.264Z,6.63
2018-06-03T18:16:00.907Z,4.37
2018-06-03T18:18:29.585Z,3.10
2018-06-03T18:20:58.215Z,4.63
2018-06-03T18:23:26.922Z,2.90
2018-06-03T18:25:55.566Z,3.93
2018-06-03T18:28:24.279Z,4.67
2018-06-03T18:30:52.918Z,4.40
2018-06-03T18:33:21.534Z,6.10
2018-06-03T18:35:50.146Z,3.20
2018-06-03T18:38:18.849Z,3.47
2018-06-03T18:40:47.547Z,3.27
2018-06-03T18:43:16.203Z,4.77
2018-06-03T18:45:44.871Z,6.50
2018-06-03T18:48:13.531Z,4.00
2018-06-03T18:50:42.173Z,2.67
2018-06-03T18:53:10.818Z,3.90
2018-06-03T18:55:39.478Z,3.50
2018-06-03T18:58:08.134Z,4.17
2018-06-03T19:00:36.769Z,3.93
2018-06-03T19:03:05.082Z,4.60
2018-06-03T19:05:33.714Z,3.77
2018-06-03T19:08:02.359Z,7.30
2018-06-03T19:10:30.984Z,5.03
2018-06-03T19:12:59.638Z,6.60
2018-06-03T19:15:28.278Z,6.03
2018-06-03T19:17:57.016Z,4.37
2018-06-03T19:20:25.782Z,5.87
2018-06-03T19:22:54.462Z,6.73
2018-06-03T19:25:23.148Z,8.80
2018-06-03T19:27:51.803Z,4.40
2018-06-03T19:30:20.423Z,5.30
2018-06-03T19:32:49.110Z,4.77
2018-06-03T19:35:17.742Z,4.13
2018-06-03T19:37:46.377Z,5.37
2018-06-03T19:40:15.076Z,4.27
2018-06-03T19:42:43.730Z,5.33
2018-06-03T19:45:12.399Z,7.50
2018-06-03T19:47:41.101Z,5.83
2018-06-03T19:50:09.777Z,6.07
2018-06-03T19:52:38.418Z,4.53
2018-06-03T19:55:07.055Z,7.30
2018-06-03T19:57:35.749Z,4.10
2018-06-03T20:00:04.491Z,5.70
2018-06-03T20:02:33.162Z,5.17
2018-06-03T20:05:01.835Z,5.07
2018-06-03T20:07:30.485Z,5.27
2018-06-03T20:09:59.102Z,4.60
2018-06-03T20:12:27.867Z,8.43
2018-06-03T20:14:56.541Z,5.83
2018-06-03T20:17:25.243Z,4.93
2018-06-03T20:19:54.117Z,5.10
2018-06-03T20:22:22.754Z,5.47
2018-06-03T20:24:51.081Z,5.00
2018-06-03T20:27:19.739Z,6.67
2018-06-03T20:29:48.382Z,7.67
2018-06-03T20:32:17.025Z,6.00
2018-06-03T20:34:45.650Z,5.63
2018-06-03T20:37:14.295Z,4.73
2018-06-03T20:39:42.987Z,6.60
2018-06-03T20:42:11.657Z,5.90
2018-06-03T20:44:40.328Z,7.93
2018-06-03T20:47:08.973Z,5.20
2018-06-03T20:49:37.629Z,5.03
2018-06-03T20:52:06.637Z,5.72
2018-06-03T20:54:35.346Z,5.23
2018-06-03T20:57:04.018Z,5.40
2018-06-03T20:59:32.695Z,7.53
2018-06-03T21:02:01.355Z,5.40
2018-06-03T21:04:30.107Z,5.90
2018-06-03T21:06:58.396Z,5.97
2018-06-03T21:09:27.101Z,4.97
2018-06-03T21:11:55.738Z,5.80
2018-06-03T21:14:24.373Z,6.60
2018-06-03T21:16:53.010Z,6.17
2018-06-03T21:19:21.644Z,7.53
2018-06-03T21:21:50.282Z,6.20
2018-06-03T21:24:18.926Z,7.53
2018-06-03T21:26:47.577Z,7.80
2018-06-03T21:29:16.228Z,9.00
2018-06-03T21:31:44.866Z,7.13
2018-06-03T21:34:13.522Z,8.93
2018-06-03T21:36:42.157Z,9.93
2018-06-03T21:39:11.122Z,8.77
2018-06-03T21:41:39.846Z,7.60
2018-06-03T21:44:08.518Z,7.60
2018-06-03T21:46:37.206Z,9.00
2018-06-03T21:49:05.871Z,8.37
2018-06-03T21:51:34.689Z,8.67
2018-06-03T21:54:03.362Z,7.90
2018-06-03T21:56:32.075Z,9.87
2018-06-03T21:59:00.754Z,9.10
2018-06-03T22:01:29.434Z,8.63
2018-06-03T22:03:58.088Z,9.40
2018-06-03T22:06:26.815Z,9.47
2018-06-03T22:08:55.518Z,8.47
2018-06-03T22:11:24.166Z,8.13
2018-06-03T22:13:52.832Z,11.40
2018-06-03T22:16:21.476Z,9.33
2018-06-03T22:18:50.141Z,9.33
2018-06-03T22:21:18.825Z,8.77
2018-06-03T22:23:47.498Z,9.73
2018-06-03T22:26:16.181Z,11.27
2018-06-03T22:28:44.842Z,8.60
2018-06-03T22:31:13.526Z,7.67
2018-06-03T22:33:42.226Z,10.07
2018-06-03T22:36:10.858Z,9.27
2018-06-03T22:38:39.179Z,9.53
2018-06-03T22:41:07.858Z,10.13
2018-06-03T22:43:36.722Z,9.03
2018-06-03T22:46:05.413Z,8.83
2018-06-03T22:48:34.084Z,11.47
2018-06-03T22:51:02.730Z,9.43
2018-06-03T22:53:31.401Z,9.53
2018-06-03T22:56:00.058Z,11.23
2018-06-03T22:58:28.713Z,8.87
2018-06-03T23:00:57.438Z,11.77
2018-06-03T23:03:26.059Z,9.20
2018-06-03T23:05:54.702Z,9.03
2018-06-03T23:08:23.389Z,9.07
2018-06-03T23:10:52.021Z,7.67
2018-06-03T23:13:20.690Z,12.03
2018-06-03T23:15:49.387Z,10.10
2018-06-03T23:18:18.014Z,10.63
2018-06-03T23:20:46.657Z,7.70
2018-06-03T23:23:15.358Z,9.37
2018-06-03T23:25:44.050Z,8.63
2018-06-03T23:28:12.762Z,12.30
2018-06-03T23:30:41.406Z,10.93
2018-06-03T23:33:10.062Z,11.17
2018-06-03T23:35:38.760Z,11.10
2018-06-03T23:38:07.489Z,8.63
2018-06-03T23:40:36.122Z,7.70
2018-06-03T23:43:04.825Z,8.80
2018-06-03T23:45:33.505Z,8.40
2018-06-03T23:48:02.145Z,10.57
2018-06-03T23:50:30.777Z,8.43
2018-06-03T23:52:59.405Z,10.87
2018-06-03T23:55:28.043Z,9.23
2018-06-03T23:57:56.718Z,9.17
